»·PEaware :: N58144 KPDX-KSEA

N58144 :: KPDX-KSEA

FLIGHT INFORMATION

Flight Status: Arrived
Operator: Privately registered:
United States
More flights under this callsign
Pilot: Daniel L. (26794)
Aircraft: MOONEY M-20 201 202 205 220 ATS MSE
(M20P)
More flights by this aircraft type
Origin: KPDX Portland Intl
United States
Destination: KSEA Seattle-Tacoma Intl
United States
More flights between these airports :: More routes between these airports
Route: +BTG V287 OLM SEA
File this flight plan on PilotEdge
Remarks: no sid no star
Altitude:
(Current/Filed)
9,000ft
Speed:
(Current/Filed)
170kts
Departed: 31-Oct-19 07:47 PM
Arrived: 31-Oct-19 08:35 PM
Distance/Time
Traveled:
112nm/0:48
Distance/Time
To Go:
Arrived

Flight Plot

Page will automatically refresh every two minutes.

Flight plan parsing failed; only flown route is shown


Map Options




Map Legend


Flown Route
Filed Route
Departure Airport
Arrival Airport
Navaid (VOR, NDB)
Fix

Horizontal Profiles

Position Reports

Time Latitude Longitude Heading Altitude Ground
Speed
31-Oct-19 19:28 45.587054 -122.582996 122 18ft 0kts
31-Oct-19 19:29 45.587003 -122.582883 122 18ft 0kts
31-Oct-19 19:30 45.586953 -122.582770 122 18ft 0kts
31-Oct-19 19:31 45.586902 -122.582657 122 18ft 0kts
31-Oct-19 19:32 45.586783 -122.582265 91 18ft 13kts
31-Oct-19 19:33 45.586957 -122.581820 29 18ft 0kts
31-Oct-19 19:34 45.586957 -122.581820 29 18ft 0kts
31-Oct-19 19:35 45.586957 -122.581820 29 18ft 0kts
31-Oct-19 19:36 45.586957 -122.581820 29 18ft 0kts
31-Oct-19 19:37 45.586957 -122.581820 29 18ft 0kts
31-Oct-19 19:38 45.586957 -122.581820 29 18ft 0kts
31-Oct-19 19:39 45.586957 -122.581820 29 18ft 0kts
31-Oct-19 19:40 45.587806 -122.582764 359 18ft 18kts
31-Oct-19 19:41 45.591489 -122.590370 301 18ft 22kts
31-Oct-19 19:42 45.593163 -122.594629 299 21ft 7kts
31-Oct-19 19:43 45.593657 -122.595916 311 22ft 0kts
31-Oct-19 19:44 45.593726 -122.595991 329 22ft 4kts
31-Oct-19 19:45 45.594040 -122.596087 25 22ft 2kts
31-Oct-19 19:46 45.585909 -122.574532 120 341ft 111kts
31-Oct-19 19:47 45.594958 -122.535807 25 1302ft 143kts
31-Oct-19 19:48 45.632910 -122.516755 344 2301ft 149kts
31-Oct-19 19:49 45.670648 -122.540957 336 3298ft 148kts
31-Oct-19 19:50 45.707155 -122.564956 337 4293ft 141kts
31-Oct-19 19:51 45.742286 -122.587828 341 5289ft 135kts
31-Oct-19 19:52 45.777935 -122.598590 349 6283ft 128kts
31-Oct-19 19:53 45.811742 -122.607243 348 7275ft 119kts
31-Oct-19 19:54 45.843208 -122.615104 347 8190ft 115kts
31-Oct-19 19:55 45.875668 -122.623221 346 8953ft 124kts
31-Oct-19 19:56 45.915655 -122.633285 347 8982ft 161kts
31-Oct-19 19:57 45.961234 -122.644666 347 8982ft 169kts
31-Oct-19 19:58 46.008046 -122.656363 348 8984ft 171kts
31-Oct-19 19:59 46.054767 -122.668062 349 8987ft 171kts
31-Oct-19 20:00 46.101346 -122.679744 349 8989ft 171kts
31-Oct-19 20:01 46.148420 -122.691571 349 8992ft 173kts
31-Oct-19 20:02 46.196365 -122.703640 349 8974ft 175kts
31-Oct-19 20:03 46.244185 -122.715700 349 8973ft 175kts
31-Oct-19 20:04 46.292135 -122.727815 349 8973ft 175kts
31-Oct-19 20:05 46.339384 -122.739774 349 8973ft 171kts
31-Oct-19 20:06 46.385902 -122.751570 349 8973ft 168kts
31-Oct-19 20:07 46.431790 -122.763225 349 8977ft 167kts
31-Oct-19 20:08 46.477587 -122.774875 349 8985ft 167kts
31-Oct-19 20:09 46.523280 -122.786520 349 8992ft 167kts
31-Oct-19 20:10 46.569009 -122.798193 349 8999ft 166kts
31-Oct-19 20:11 46.614612 -122.809854 349 8999ft 167kts
31-Oct-19 20:12 46.660328 -122.821564 349 8999ft 166kts
31-Oct-19 20:13 46.705874 -122.833251 349 8999ft 166kts
31-Oct-19 20:14 46.751397 -122.844951 349 8998ft 166kts
31-Oct-19 20:15 46.797034 -122.856702 349 8998ft 166kts
31-Oct-19 20:16 46.842512 -122.868430 349 8998ft 166kts
31-Oct-19 20:17 46.887941 -122.880166 349 8998ft 166kts
31-Oct-19 20:18 46.932078 -122.891589 349 8998ft 167kts
31-Oct-19 20:19 46.976969 -122.887915 27 8998ft 172kts
31-Oct-19 20:20 47.015674 -122.845377 36 8456ft 187kts
31-Oct-19 20:21 47.057830 -122.792768 37 7648ft 205kts
31-Oct-19 20:22 47.099948 -122.739384 38 7001ft 187kts
31-Oct-19 20:23 47.138020 -122.690980 38 6998ft 183kts
31-Oct-19 20:24 47.169574 -122.630745 54 6406ft 192kts
31-Oct-19 20:25 47.198650 -122.564221 54 5513ft 194kts
31-Oct-19 20:26 47.227671 -122.498653 54 5001ft 184kts
31-Oct-19 20:27 47.253897 -122.439708 47 4544ft 150kts
31-Oct-19 20:28 47.282582 -122.397044 42 3596ft 148kts
31-Oct-19 20:29 47.312717 -122.357762 29 2554ft 141kts
31-Oct-19 20:30 47.346165 -122.331639 21 1922ft 132kts
31-Oct-19 20:31 47.380506 -122.318071 9 1182ft 120kts
31-Oct-19 20:32 47.415331 -122.312178 5 704ft 124kts
31-Oct-19 20:33 47.438673 -122.317972 358 400ft 77kts
31-Oct-19 20:34 47.445435 -122.316906 160 356ft 24kts
31-Oct-19 20:35 47.439703 -122.313669 190 355ft 21kts

Navigation Log

Ident Type
Flight plan parsing failed, navigation log unavailable